PWSweather.com
Personal Weather Stations
Station Observations
AF1HS
North Haven, CT 06473

North Haven, CT 06473

Lat: 41.3733, Lon: -72.8413

Elevation: 85.3

Station Type: Oregon Scientific WMR968

http://www.af1hs.com/wx/index.php

High Low Average
Temperature 80.7°F27.1°F 53.4°F11.9°F 66.8°F19.3°F
Dew Point 65.3°F18.5°F 53.4°F11.9°F 60.1°F15.6°F
Winds 6.0 mph S9.7 mph S Calm Calm 1.7 mph 2.7 mph
Wind Gusts 12.7 mph20.4 mph -- 3.7 mph6.0 mph
Humidity 100% 51% 82%
Pressure 30.12 in1020.00 in 30.00 in1015.90 in -
Precipitation 0.00 in0.00 in - -
Hour Temp Dew Point Humidity Winds Wind Gusts Pressure Precip Precip Rate Daily Precip Total
12:01 AM 58.0°F14.4°C 58.0°F14.4°C 100% Calm Calm -- 30.09 in1019.0 mb - 0.00 in0.0 mm 0.00 in0.0 mm
12:10 AM 57.7°F14.3°C 57.7°F14.3°C 100% Calm Calm -- 30.09 in1019.0 mb - 0.00 in0.0 mm 0.00 in0.0 mm
12:21 AM 57.6°F14.2°C 57.6°F14.2°C 100% Calm Calm -- 30.09 in1019.0 mb - 0.00 in0.0 mm 0.00 in0.0 mm
12:31 AM 57.3°F14.1°C 57.3°F14.1°C 100% Calm Calm -- 30.09 in1019.0 mb - 0.00 in0.0 mm 0.00 in0.0 mm
12:41 AM 57.2°F14.0°C 57.2°F14.0°C 100% Calm Calm -- 30.09 in1019.0 mb - 0.00 in0.0 mm 0.00 in0.0 mm
12:51 AM 57.0°F13.9°C 57.0°F13.9°C 100% Calm Calm -- 30.09 in1019.0 mb - 0.00 in0.0 mm 0.00 in0.0 mm
01:01 AM 56.8°F13.8°C 56.8°F13.8°C 100% Calm Calm -- 30.09 in1019.0 mb - 0.00 in0.0 mm 0.00 in0.0 mm
01:11 AM 56.5°F13.6°C 56.5°F13.6°C 100% Calm Calm -- 30.09 in1019.0 mb - 0.00 in0.0 mm 0.00 in0.0 mm
01:21 AM 56.2°F13.4°C 56.2°F13.4°C 100% Calm Calm -- 30.09 in1019.0 mb - 0.00 in0.0 mm 0.00 in0.0 mm
01:31 AM 56.1°F13.4°C 56.1°F13.4°C 100% Calm Calm -- 30.09 in1019.0 mb - 0.00 in0.0 mm 0.00 in0.0 mm
01:41 AM 56.0°F13.3°C 56.0°F13.3°C 100% Calm Calm -- 30.09 in1019.0 mb - 0.00 in0.0 mm 0.00 in0.0 mm
01:51 AM 55.8°F13.2°C 55.8°F13.2°C 100% Calm Calm -- 30.09 in1019.0 mb - 0.00 in0.0 mm 0.00 in0.0 mm
02:01 AM 55.7°F13.2°C 55.7°F13.2°C 100% Calm Calm -- 30.09 in1019.0 mb - 0.00 in0.0 mm 0.00 in0.0 mm
04:41 AM 54.1°F12.3°C 54.1°F12.3°C 100% Calm Calm -- 30.06 in1017.9 mb - 0.00 in0.0 mm 0.00 in0.0 mm
05:12 AM 53.8°F12.1°C 53.8°F12.1°C 100% Calm Calm -- 30.06 in1017.9 mb - 0.00 in0.0 mm 0.00 in0.0 mm
05:41 AM 53.6°F12.0°C 53.6°F12.0°C 100% Calm Calm -- 30.09 in1019.0 mb - 0.00 in0.0 mm 0.00 in0.0 mm
05:51 AM 53.7°F12.1°C 53.7°F12.1°C 100% Calm Calm -- 30.09 in1019.0 mb - 0.00 in0.0 mm 0.00 in0.0 mm
06:01 AM 53.7°F12.1°C 53.7°F12.1°C 100% Calm Calm -- 30.09 in1019.0 mb - 0.00 in0.0 mm 0.00 in0.0 mm
06:11 AM 53.4°F11.9°C 53.4°F11.9°C 100% Calm Calm -- 30.09 in1019.0 mb - 0.00 in0.0 mm 0.00 in0.0 mm
06:21 AM 53.6°F12.0°C 53.6°F12.0°C 100% Calm Calm -- 30.09 in1019.0 mb - 0.00 in0.0 mm 0.00 in0.0 mm
06:31 AM 54.0°F12.2°C 54.0°F12.2°C 100% Calm Calm 3.6 mph5.8 kmh 30.09 in1019.0 mb - 0.00 in0.0 mm 0.00 in0.0 mm
06:51 AM 55.6°F13.1°C 55.6°F13.1°C 100% 1.0 mph NNW1.6 kmh NNW 4.0 mph6.4 kmh 30.09 in1019.0 mb - 0.00 in0.0 mm 0.00 in0.0 mm
07:11 AM 64.6°F18.1°C 64.6°F18.1°C 100% 2.1 mph NNW3.4 kmh NNW 6.3 mph10.1 kmh 30.09 in1019.0 mb - 0.00 in0.0 mm 0.00 in0.0 mm
07:21 AM 64.4°F18.0°C 64.4°F18.0°C 100% 0.4 mph NNW0.6 kmh NNW 2.2 mph3.5 kmh 30.09 in1019.0 mb - 0.00 in0.0 mm 0.00 in0.0 mm
07:31 AM 63.2°F17.3°C 63.2°F17.3°C 100% 1.4 mph NNW2.3 kmh NNW 3.1 mph5.0 kmh 30.09 in1019.0 mb - 0.00 in0.0 mm 0.00 in0.0 mm
07:41 AM 63.2°F17.3°C 63.2°F17.3°C 100% 1.4 mph NNW2.3 kmh NNW 4.0 mph6.4 kmh 30.09 in1019.0 mb - 0.00 in0.0 mm 0.00 in0.0 mm
07:51 AM 63.6°F17.6°C 63.6°F17.6°C 100% 0.8 mph NNW1.3 kmh NNW 5.8 mph9.3 kmh 30.09 in1019.0 mb - 0.00 in0.0 mm 0.00 in0.0 mm
08:01 AM 64.5°F18.1°C 64.5°F18.1°C 100% 2.4 mph NW3.9 kmh NW 4.0 mph6.4 kmh 30.09 in1019.0 mb - 0.00 in0.0 mm 0.00 in0.0 mm
08:11 AM 65.9°F18.8°C 65.3°F18.5°C 98% 2.2 mph NW3.5 kmh NW 5.4 mph8.7 kmh 30.09 in1019.0 mb - 0.00 in0.0 mm 0.00 in0.0 mm
08:21 AM 67.1°F19.5°C 62.8°F17.1°C 86% 4.1 mph NNW6.6 kmh NNW 6.7 mph10.8 kmh 30.12 in1020.0 mb - 0.00 in0.0 mm 0.00 in0.0 mm
08:31 AM 67.8°F19.9°C 61.8°F16.6°C 81% 2.8 mph N4.5 kmh N 5.4 mph8.7 kmh 30.12 in1020.0 mb - 0.00 in0.0 mm 0.00 in0.0 mm
08:41 AM 68.2°F20.1°C 61.8°F16.6°C 80% 0.2 mph N0.3 kmh N 4.9 mph7.9 kmh 30.12 in1020.0 mb - 0.00 in0.0 mm 0.00 in0.0 mm
08:51 AM 69.0°F20.6°C 60.0°F15.6°C 73% 2.7 mph N4.3 kmh N 6.3 mph10.1 kmh 30.12 in1020.0 mb - 0.00 in0.0 mm 0.00 in0.0 mm
09:41 AM 72.8°F22.7°C 60.8°F16.0°C 66% 3.7 mph N6.0 kmh N 5.8 mph9.3 kmh 30.12 in1020.0 mb - 0.00 in0.0 mm 0.00 in0.0 mm
09:51 AM 73.8°F23.2°C 61.7°F16.5°C 66% 3.4 mph NNW5.5 kmh NNW 6.3 mph10.1 kmh 30.12 in1020.0 mb - 0.00 in0.0 mm 0.00 in0.0 mm
10:01 AM 75.2°F24.0°C 60.8°F16.0°C 61% 3.8 mph NNW6.1 kmh NNW 5.8 mph9.3 kmh 30.12 in1020.0 mb - 0.00 in0.0 mm 0.00 in0.0 mm
10:11 AM 75.9°F24.4°C 61.5°F16.4°C 61% 2.9 mph NNW4.7 kmh NNW 5.8 mph9.3 kmh 30.12 in1020.0 mb - 0.00 in0.0 mm 0.00 in0.0 mm
12:01 PM 79.7°F26.5°C 64.1°F17.8°C 59% Calm Calm 2.2 mph3.5 kmh 30.09 in1019.0 mb - 0.00 in0.0 mm 0.00 in0.0 mm
12:11 PM 80.7°F27.1°C 60.9°F16.1°C 51% 2.1 mph SE3.4 kmh SE 7.2 mph11.6 kmh 30.09 in1019.0 mb - 0.00 in0.0 mm 0.00 in0.0 mm
12:21 PM 79.0°F26.1°C 62.4°F16.9°C 57% 1.0 mph WSW1.6 kmh WSW 3.1 mph5.0 kmh 30.09 in1019.0 mb - 0.00 in0.0 mm 0.00 in0.0 mm
12:31 PM 79.0°F26.1°C 61.5°F16.4°C 55% 1.5 mph ESE2.4 kmh ESE 4.5 mph7.2 kmh 30.08 in1018.6 mb - 0.00 in0.0 mm 0.00 in0.0 mm
12:41 PM 78.8°F26.0°C 61.8°F16.6°C 56% 3.0 mph ENE4.8 kmh ENE 8.0 mph12.9 kmh 30.06 in1017.9 mb - 0.00 in0.0 mm 0.00 in0.0 mm
12:51 PM 78.8°F26.0°C 61.3°F16.3°C 55% 3.8 mph SSW6.1 kmh SSW 5.4 mph8.7 kmh 30.06 in1017.9 mb - 0.00 in0.0 mm 0.00 in0.0 mm
01:01 PM 80.2°F26.8°C 63.0°F17.2°C 56% 2.0 mph S3.2 kmh S 5.8 mph9.3 kmh 30.06 in1017.9 mb - 0.00 in0.0 mm 0.00 in0.0 mm
01:11 PM 79.3°F26.3°C 64.2°F17.9°C 60% 4.8 mph S7.7 kmh S 6.3 mph10.1 kmh 30.06 in1017.9 mb - 0.00 in0.0 mm 0.00 in0.0 mm
01:21 PM 79.2°F26.2°C 64.1°F17.8°C 60% 4.3 mph SSE6.9 kmh SSE 6.7 mph10.8 kmh 30.06 in1017.9 mb - 0.00 in0.0 mm 0.00 in0.0 mm
01:31 PM 78.2°F25.7°C 63.6°F17.6°C 61% 6.0 mph S9.7 kmh S 7.6 mph12.2 kmh 30.06 in1017.9 mb - 0.00 in0.0 mm 0.00 in0.0 mm
01:41 PM 78.1°F25.6°C 64.4°F18.0°C 63% 4.6 mph S7.4 kmh S 12.7 mph20.4 kmh 30.06 in1017.9 mb - 0.00 in0.0 mm 0.00 in0.0 mm
01:51 PM 78.4°F25.8°C 63.8°F17.7°C 61% 2.9 mph SE4.7 kmh SE 7.6 mph12.2 kmh 30.06 in1017.9 mb - 0.00 in0.0 mm 0.00 in0.0 mm
02:31 PM 76.4°F24.7°C 61.1°F16.2°C 59% 4.9 mph SE7.9 kmh SE 10.5 mph16.9 kmh 30.05 in1017.6 mb - 0.00 in0.0 mm 0.00 in0.0 mm
02:41 PM 75.4°F24.1°C 60.0°F15.6°C 59% 5.5 mph SE8.9 kmh SE 10.5 mph16.9 kmh 30.03 in1016.9 mb - 0.00 in0.0 mm 0.00 in0.0 mm
02:51 PM 75.6°F24.2°C 60.3°F15.7°C 59% 4.0 mph SSE6.4 kmh SSE 8.0 mph12.9 kmh 30.03 in1016.9 mb - 0.00 in0.0 mm 0.00 in0.0 mm
03:01 PM 76.3°F24.6°C 60.0°F15.6°C 57% 3.4 mph SSE5.5 kmh SSE 8.3 mph13.4 kmh 30.03 in1016.9 mb - 0.00 in0.0 mm 0.00 in0.0 mm
03:41 PM 75.7°F24.3°C 58.9°F14.9°C 56% 2.8 mph SE4.5 kmh SE 6.3 mph10.1 kmh 30.03 in1016.9 mb - 0.00 in0.0 mm 0.00 in0.0 mm
03:51 PM 75.8°F24.3°C 59.5°F15.3°C 57% 3.2 mph SSE5.1 kmh SSE 5.8 mph9.3 kmh 30.03 in1016.9 mb - 0.00 in0.0 mm 0.00 in0.0 mm
04:01 PM 75.7°F24.3°C 58.9°F14.9°C 56% 4.9 mph S7.9 kmh S 8.0 mph12.9 kmh 30.03 in1016.9 mb - 0.00 in0.0 mm 0.00 in0.0 mm
04:11 PM 75.4°F24.1°C 58.6°F14.8°C 56% 5.0 mph SSW8.0 kmh SSW 8.3 mph13.4 kmh 30.03 in1016.9 mb - 0.00 in0.0 mm 0.00 in0.0 mm
04:21 PM 75.6°F24.2°C 58.8°F14.9°C 56% 5.2 mph S8.4 kmh S 8.7 mph14.0 kmh 30.03 in1016.9 mb - 0.00 in0.0 mm 0.00 in0.0 mm
04:41 PM 74.8°F23.8°C 59.1°F15.1°C 58% 3.9 mph S6.3 kmh S 7.6 mph12.2 kmh 30.03 in1016.9 mb - 0.00 in0.0 mm 0.00 in0.0 mm
05:21 PM 73.4°F23.0°C 60.9°F16.1°C 65% 5.2 mph S8.4 kmh S 8.7 mph14.0 kmh 30.00 in1015.9 mb - 0.00 in0.0 mm 0.00 in0.0 mm
05:41 PM 73.6°F23.1°C 61.5°F16.4°C 66% 4.4 mph SE7.1 kmh SE 8.7 mph14.0 kmh 30.00 in1015.9 mb - 0.00 in0.0 mm 0.00 in0.0 mm
06:01 PM 72.8°F22.7°C 61.6°F16.4°C 68% 4.3 mph S6.9 kmh S 6.3 mph10.1 kmh 30.00 in1015.9 mb - 0.00 in0.0 mm 0.00 in0.0 mm
06:11 PM 72.3°F22.4°C 61.6°F16.4°C 69% 4.9 mph SW7.9 kmh SW 8.3 mph13.4 kmh 30.00 in1015.9 mb - 0.00 in0.0 mm 0.00 in0.0 mm
06:31 PM 71.1°F21.7°C 60.8°F16.0°C 70% 4.6 mph S7.4 kmh S 8.7 mph14.0 kmh 30.00 in1015.9 mb - 0.00 in0.0 mm 0.00 in0.0 mm
07:11 PM 69.5°F20.8°C 61.2°F16.2°C 75% 1.9 mph SE3.1 kmh SE 5.4 mph8.7 kmh 30.00 in1015.9 mb - 0.00 in0.0 mm 0.00 in0.0 mm
07:21 PM 69.2°F20.7°C 61.3°F16.3°C 76% 2.5 mph SE4.0 kmh SE 5.4 mph8.7 kmh 30.00 in1015.9 mb - 0.00 in0.0 mm 0.00 in0.0 mm
07:31 PM 68.7°F20.4°C 61.2°F16.2°C 77% 1.0 mph SE1.6 kmh SE 4.9 mph7.9 kmh 30.00 in1015.9 mb - 0.00 in0.0 mm 0.00 in0.0 mm
07:41 PM 68.4°F20.2°C 61.0°F16.1°C 77% 1.6 mph SE2.6 kmh SE 3.6 mph5.8 kmh 30.00 in1015.9 mb - 0.00 in0.0 mm 0.00 in0.0 mm
07:51 PM 68.0°F20.0°C 60.9°F16.1°C 78% Calm Calm -- 30.00 in1015.9 mb - 0.00 in0.0 mm 0.00 in0.0 mm
08:01 PM 67.5°F19.7°C 61.1°F16.2°C 80% Calm Calm -- 30.00 in1015.9 mb - 0.00 in0.0 mm 0.00 in0.0 mm
08:21 PM 66.5°F19.2°C 60.5°F15.8°C 81% Calm Calm -- 30.00 in1015.9 mb - 0.00 in0.0 mm 0.00 in0.0 mm
08:51 PM 65.2°F18.4°C 61.3°F16.3°C 87% Calm Calm -- 30.00 in1015.9 mb - 0.00 in0.0 mm 0.00 in0.0 mm
09:01 PM 64.8°F18.2°C 61.5°F16.4°C 89% Calm Calm -- 30.00 in1015.9 mb - 0.00 in0.0 mm 0.00 in0.0 mm
09:11 PM 64.4°F18.0°C 61.7°F16.5°C 91% Calm Calm -- 30.00 in1015.9 mb - 0.00 in0.0 mm 0.00 in0.0 mm
09:21 PM 63.9°F17.7°C 61.8°F16.6°C 93% Calm Calm -- 30.00 in1015.9 mb - 0.00 in0.0 mm 0.00 in0.0 mm
09:31 PM 63.7°F17.6°C 62.2°F16.8°C 95% Calm Calm -- 30.00 in1015.9 mb - 0.00 in0.0 mm 0.00 in0.0 mm
09:41 PM 63.3°F17.4°C 62.2°F16.8°C 96% Calm Calm -- 30.00 in1015.9 mb - 0.00 in0.0 mm 0.00 in0.0 mm
10:41 PM 61.7°F16.5°C 61.7°F16.5°C 100% Calm Calm -- 30.00 in1015.9 mb - 0.00 in0.0 mm 0.00 in0.0 mm
10:51 PM 61.4°F16.3°C 61.4°F16.3°C 100% Calm Calm -- 30.00 in1015.9 mb - 0.00 in0.0 mm 0.00 in0.0 mm
11:01 PM 61.2°F16.2°C 61.2°F16.2°C 100% Calm Calm -- 30.00 in1015.9 mb - 0.00 in0.0 mm 0.00 in0.0 mm
11:11 PM 60.9°F16.1°C 60.9°F16.1°C 100% Calm Calm -- 30.00 in1015.9 mb - 0.00 in0.0 mm 0.00 in0.0 mm
11:21 PM 60.8°F16.0°C 60.8°F16.0°C 100% Calm Calm -- 30.00 in1015.9 mb - 0.00 in0.0 mm 0.00 in0.0 mm
11:31 PM 60.5°F15.8°C 60.5°F15.8°C 100% Calm Calm -- 30.00 in1015.9 mb - 0.00 in0.0 mm 0.00 in0.0 mm